sensor_id;sensor_type;location;lat;lon;timestamp;temperature;humidity
318;DHT22;146;53.448;10.228;2023-01-06T00:01:29;7.20;3.70
318;DHT22;146;53.448;10.228;2023-01-06T00:03:58;7.20;3.80
318;DHT22;146;53.448;10.228;2023-01-06T00:06:27;7.20;4.00
318;DHT22;146;53.448;10.228;2023-01-06T00:08:56;7.20;4.20
318;DHT22;146;53.448;10.228;2023-01-06T00:11:23;7.20;4.30
318;DHT22;146;53.448;10.228;2023-01-06T00:13:51;7.10;4.20
318;DHT22;146;53.448;10.228;2023-01-06T00:16:19;7.20;4.30
318;DHT22;146;53.448;10.228;2023-01-06T00:18:47;7.10;4.60
318;DHT22;146;53.448;10.228;2023-01-06T00:21:15;7.20;4.80
318;DHT22;146;53.448;10.228;2023-01-06T00:23:41;7.30;4.70
318;DHT22;146;53.448;10.228;2023-01-06T00:26:09;7.40;4.60
318;DHT22;146;53.448;10.228;2023-01-06T00:28:36;7.40;4.20
318;DHT22;146;53.448;10.228;2023-01-06T00:31:07;7.30;4.00
318;DHT22;146;53.448;10.228;2023-01-06T00:33:34;7.30;4.10
318;DHT22;146;53.448;10.228;2023-01-06T00:36:03;7.30;4.10
318;DHT22;146;53.448;10.228;2023-01-06T00:38:31;7.20;4.20
318;DHT22;146;53.448;10.228;2023-01-06T00:41:02;7.20;4.50
318;DHT22;146;53.448;10.228;2023-01-06T00:43:29;7.20;4.50
318;DHT22;146;53.448;10.228;2023-01-06T00:45:56;7.30;4.60
318;DHT22;146;53.448;10.228;2023-01-06T00:48:23;7.30;4.60
318;DHT22;146;53.448;10.228;2023-01-06T00:50:50;7.30;4.50
318;DHT22;146;53.448;10.228;2023-01-06T00:53:18;7.40;4.50
318;DHT22;146;53.448;10.228;2023-01-06T00:55:45;7.40;4.30
318;DHT22;146;53.448;10.228;2023-01-06T00:58:11;7.30;3.80
318;DHT22;146;53.448;10.228;2023-01-06T01:00:38;7.30;3.60
318;DHT22;146;53.448;10.228;2023-01-06T01:03:05;7.20;3.50
318;DHT22;146;53.448;10.228;2023-01-06T01:05:32;7.20;4.00
318;DHT22;146;53.448;10.228;2023-01-06T01:07:59;7.30;4.00
318;DHT22;146;53.448;10.228;2023-01-06T01:10:38;7.30;4.20
318;DHT22;146;53.448;10.228;2023-01-06T01:13:09;7.20;4.20
318;DHT22;146;53.448;10.228;2023-01-06T01:15:39;7.20;4.30
318;DHT22;146;53.448;10.228;2023-01-06T01:18:08;7.20;4.30
318;DHT22;146;53.448;10.228;2023-01-06T01:20:40;7.20;4.40
318;DHT22;146;53.448;10.228;2023-01-06T01:23:07;7.20;4.70
318;DHT22;146;53.448;10.228;2023-01-06T01:25:35;7.20;4.80
318;DHT22;146;53.448;10.228;2023-01-06T01:28:05;7.20;5.00
318;DHT22;146;53.448;10.228;2023-01-06T01:30:35;7.20;5.30
318;DHT22;146;53.448;10.228;2023-01-06T01:33:05;7.30;5.30
318;DHT22;146;53.448;10.228;2023-01-06T01:35:37;7.30;5.20
318;DHT22;146;53.448;10.228;2023-01-06T01:38:16;7.30;5.30
318;DHT22;146;53.448;10.228;2023-01-06T01:41:17;7.40;5.20
318;DHT22;146;53.448;10.228;2023-01-06T01:44:47;7.30;5.10
318;DHT22;146;53.448;10.228;2023-01-06T01:46:58;7.30;5.20
318;DHT22;146;53.448;10.228;2023-01-06T01:49:26;7.40;5.30
318;DHT22;146;53.448;10.228;2023-01-06T01:51:59;7.40;5.40
318;DHT22;146;53.448;10.228;2023-01-06T01:54:28;7.40;5.70
318;DHT22;146;53.448;10.228;2023-01-06T01:57:02;7.40;5.80
318;DHT22;146;53.448;10.228;2023-01-06T01:59:31;7.40;5.80
318;DHT22;146;53.448;10.228;2023-01-06T02:02:00;7.40;5.80
318;DHT22;146;53.448;10.228;2023-01-06T02:04:33;7.30;5.70
318;DHT22;146;53.448;10.228;2023-01-06T02:07:01;7.30;5.90
318;DHT22;146;53.448;10.228;2023-01-06T02:09:32;7.30;5.90
318;DHT22;146;53.448;10.228;2023-01-06T02:11:59;7.30;6.10
318;DHT22;146;53.448;10.228;2023-01-06T02:14:27;7.30;6.20
318;DHT22;146;53.448;10.228;2023-01-06T02:17:08;7.30;6.50
318;DHT22;146;53.448;10.228;2023-01-06T02:26:08;7.30;7.00
318;DHT22;146;53.448;10.228;2023-01-06T02:29:00;7.40;7.20
318;DHT22;146;53.448;10.228;2023-01-06T02:31:45;7.40;7.30
318;DHT22;146;53.448;10.228;2023-01-06T02:34:24;7.40;7.40
318;DHT22;146;53.448;10.228;2023-01-06T02:36:59;7.40;7.50
318;DHT22;146;53.448;10.228;2023-01-06T02:39:37;7.50;7.70
318;DHT22;146;53.448;10.228;2023-01-06T02:42:15;7.50;7.80
318;DHT22;146;53.448;10.228;2023-01-06T02:44:48;7.60;7.80
318;DHT22;146;53.448;10.228;2023-01-06T02:47:29;7.70;7.70
318;DHT22;146;53.448;10.228;2023-01-06T02:50:05;7.70;7.80
318;DHT22;146;53.448;10.228;2023-01-06T02:52:40;7.80;7.60
318;DHT22;146;53.448;10.228;2023-01-06T02:55:11;7.80;7.50
318;DHT22;146;53.448;10.228;2023-01-06T02:57:43;7.80;7.40
318;DHT22;146;53.448;10.228;2023-01-06T03:00:15;7.80;7.50
318;DHT22;146;53.448;10.228;2023-01-06T03:02:49;7.90;7.70
318;DHT22;146;53.448;10.228;2023-01-06T03:05:18;7.90;7.70
318;DHT22;146;53.448;10.228;2023-01-06T03:07:47;8.00;7.80
318;DHT22;146;53.448;10.228;2023-01-06T03:10:17;8.00;7.60
318;DHT22;146;53.448;10.228;2023-01-06T03:12:50;8.00;7.50
318;DHT22;146;53.448;10.228;2023-01-06T03:15:17;8.00;7.20
318;DHT22;146;53.448;10.228;2023-01-06T03:17:45;8.00;7.40
318;DHT22;146;53.448;10.228;2023-01-06T03:20:12;8.00;7.50
318;DHT22;146;53.448;10.228;2023-01-06T03:22:40;8.10;7.60
318;DHT22;146;53.448;10.228;2023-01-06T03:25:08;8.20;7.70
318;DHT22;146;53.448;10.228;2023-01-06T03:27:35;8.20;7.70
318;DHT22;146;53.448;10.228;2023-01-06T03:30:02;8.30;7.70
318;DHT22;146;53.448;10.228;2023-01-06T03:32:35;8.30;7.60
318;DHT22;146;53.448;10.228;2023-01-06T03:35:17;8.30;7.60
318;DHT22;146;53.448;10.228;2023-01-06T03:37:51;8.30;7.70
318;DHT22;146;53.448;10.228;2023-01-06T03:40:27;8.40;7.70
318;DHT22;146;53.448;10.228;2023-01-06T03:43:01;8.50;7.80
318;DHT22;146;53.448;10.228;2023-01-06T03:45:57;8.50;7.90
318;DHT22;146;53.448;10.228;2023-01-06T03:48:32;8.60;7.90
318;DHT22;146;53.448;10.228;2023-01-06T03:51:06;8.70;7.70
318;DHT22;146;53.448;10.228;2023-01-06T03:53:40;8.70;7.50
318;DHT22;146;53.448;10.228;2023-01-06T03:56:14;8.70;7.50
318;DHT22;146;53.448;10.228;2023-01-06T03:58:43;8.80;7.60
318;DHT22;146;53.448;10.228;2023-01-06T04:01:11;8.80;7.50
318;DHT22;146;53.448;10.228;2023-01-06T04:03:39;8.90;7.50
318;DHT22;146;53.448;10.228;2023-01-06T04:06:10;8.90;7.50
318;DHT22;146;53.448;10.228;2023-01-06T04:08:37;8.90;7.50
318;DHT22;146;53.448;10.228;2023-01-06T04:11:04;8.90;7.60
318;DHT22;146;53.448;10.228;2023-01-06T04:13:31;9.00;7.50
318;DHT22;146;53.448;10.228;2023-01-06T04:15:57;9.00;7.40
318;DHT22;146;53.448;10.228;2023-01-06T04:18:24;9.10;7.40
318;DHT22;146;53.448;10.228;2023-01-06T04:20:50;9.10;7.30
318;DHT22;146;53.448;10.228;2023-01-06T04:23:21;9.10;7.10
318;DHT22;146;53.448;10.228;2023-01-06T04:25:48;9.10;7.20
318;DHT22;146;53.448;10.228;2023-01-06T04:28:15;9.20;7.20
318;DHT22;146;53.448;10.228;2023-01-06T04:30:41;9.20;7.20
318;DHT22;146;53.448;10.228;2023-01-06T04:33:09;9.30;7.20
318;DHT22;146;53.448;10.228;2023-01-06T04:35:35;9.30;7.30
318;DHT22;146;53.448;10.228;2023-01-06T04:38:02;9.40;7.10
318;DHT22;146;53.448;10.228;2023-01-06T04:40:30;9.40;7.00
318;DHT22;146;53.448;10.228;2023-01-06T04:42:57;9.40;7.00
318;DHT22;146;53.448;10.228;2023-01-06T04:45:31;9.40;6.70
318;DHT22;146;53.448;10.228;2023-01-06T04:47:58;9.40;6.40
318;DHT22;146;53.448;10.228;2023-01-06T04:50:25;9.40;6.60
318;DHT22;146;53.448;10.228;2023-01-06T04:52:52;9.40;6.40
318;DHT22;146;53.448;10.228;2023-01-06T04:55:18;9.50;6.40
318;DHT22;146;53.448;10.228;2023-01-06T04:57:47;9.50;6.30
318;DHT22;146;53.448;10.228;2023-01-06T05:00:14;9.50;6.40
318;DHT22;146;53.448;10.228;2023-01-06T05:02:41;9.50;6.60
318;DHT22;146;53.448;10.228;2023-01-06T05:05:08;9.50;6.70
318;DHT22;146;53.448;10.228;2023-01-06T05:07:36;9.60;6.80
318;DHT22;146;53.448;10.228;2023-01-06T05:10:03;9.60;6.70
318;DHT22;146;53.448;10.228;2023-01-06T05:12:31;9.50;6.60
318;DHT22;146;53.448;10.228;2023-01-06T05:15:00;9.50;6.70
318;DHT22;146;53.448;10.228;2023-01-06T05:17:27;9.50;6.70
318;DHT22;146;53.448;10.228;2023-01-06T05:19:53;9.60;6.80
318;DHT22;146;53.448;10.228;2023-01-06T05:22:20;9.60;7.00
318;DHT22;146;53.448;10.228;2023-01-06T05:24:47;9.60;7.00
318;DHT22;146;53.448;10.228;2023-01-06T05:27:14;9.60;7.00
318;DHT22;146;53.448;10.228;2023-01-06T05:29:41;9.60;7.00
318;DHT22;146;53.448;10.228;2023-01-06T05:32:09;9.50;6.90
318;DHT22;146;53.448;10.228;2023-01-06T05:34:36;9.50;7.30
318;DHT22;146;53.448;10.228;2023-01-06T05:37:03;9.50;7.50
318;DHT22;146;53.448;10.228;2023-01-06T05:39:30;9.50;7.70
318;DHT22;146;53.448;10.228;2023-01-06T05:41:56;9.60;7.90
318;DHT22;146;53.448;10.228;2023-01-06T05:44:23;9.50;7.90
318;DHT22;146;53.448;10.228;2023-01-06T05:46:50;9.50;8.00
318;DHT22;146;53.448;10.228;2023-01-06T05:49:18;9.60;8.30
318;DHT22;146;53.448;10.228;2023-01-06T05:51:45;9.70;8.30
318;DHT22;146;53.448;10.228;2023-01-06T05:54:13;9.60;8.20
318;DHT22;146;53.448;10.228;2023-01-06T05:56:39;9.70;8.20
318;DHT22;146;53.448;10.228;2023-01-06T05:59:06;9.80;8.40
318;DHT22;146;53.448;10.228;2023-01-06T06:01:33;9.80;8.20
318;DHT22;146;53.448;10.228;2023-01-06T06:04:00;9.90;7.90
318;DHT22;146;53.448;10.228;2023-01-06T06:06:30;9.90;7.60
318;DHT22;146;53.448;10.228;2023-01-06T06:08:57;9.90;7.50
318;DHT22;146;53.448;10.228;2023-01-06T06:11:24;9.90;7.40
318;DHT22;146;53.448;10.228;2023-01-06T06:13:52;9.90;7.30
318;DHT22;146;53.448;10.228;2023-01-06T06:16:21;10.00;7.50
318;DHT22;146;53.448;10.228;2023-01-06T06:18:50;10.00;7.50
318;DHT22;146;53.448;10.228;2023-01-06T06:21:19;10.00;7.50
318;DHT22;146;53.448;10.228;2023-01-06T06:23:48;10.10;7.40
318;DHT22;146;53.448;10.228;2023-01-06T06:26:15;10.10;7.30
318;DHT22;146;53.448;10.228;2023-01-06T06:28:42;10.10;7.10
318;DHT22;146;53.448;10.228;2023-01-06T06:31:11;10.20;6.90
318;DHT22;146;53.448;10.228;2023-01-06T06:33:38;10.20;6.70
318;DHT22;146;53.448;10.228;2023-01-06T06:36:07;10.10;6.60
318;DHT22;146;53.448;10.228;2023-01-06T06:38:36;10.10;6.60
318;DHT22;146;53.448;10.228;2023-01-06T06:41:05;10.10;6.70
318;DHT22;146;53.448;10.228;2023-01-06T06:43:32;10.10;6.70
318;DHT22;146;53.448;10.228;2023-01-06T06:45:59;10.10;6.80
318;DHT22;146;53.448;10.228;2023-01-06T06:48:27;10.20;6.70
318;DHT22;146;53.448;10.228;2023-01-06T06:50:57;10.10;6.70
318;DHT22;146;53.448;10.228;2023-01-06T06:53:24;10.20;6.70
318;DHT22;146;53.448;10.228;2023-01-06T06:55:51;10.20;6.50
318;DHT22;146;53.448;10.228;2023-01-06T06:58:19;10.20;6.60
318;DHT22;146;53.448;10.228;2023-01-06T07:00:48;10.30;6.50
318;DHT22;146;53.448;10.228;2023-01-06T07:03:15;10.30;6.40
318;DHT22;146;53.448;10.228;2023-01-06T07:05:42;10.30;6.30
318;DHT22;146;53.448;10.228;2023-01-06T07:08:10;10.30;6.10
318;DHT22;146;53.448;10.228;2023-01-06T08:16:09;9.90;7.20
318;DHT22;146;53.448;10.228;2023-01-06T08:18:37;9.90;7.50
318;DHT22;146;53.448;10.228;2023-01-06T08:23:51;9.90;7.90
318;DHT22;146;53.448;10.228;2023-01-06T08:26:20;9.90;7.90
318;DHT22;146;53.448;10.228;2023-01-06T08:28:51;10.00;7.70
318;DHT22;146;53.448;10.228;2023-01-06T08:31:25;10.00;7.60
318;DHT22;146;53.448;10.228;2023-01-06T08:33:52;10.00;7.60
318;DHT22;146;53.448;10.228;2023-01-06T08:44:00;10.00;7.70
318;DHT22;146;53.448;10.228;2023-01-06T08:46:28;10.10;7.30
318;DHT22;146;53.448;10.228;2023-01-06T08:48:57;10.10;6.90
318;DHT22;146;53.448;10.228;2023-01-06T08:51:25;10.10;6.70
318;DHT22;146;53.448;10.228;2023-01-06T08:53:53;10.10;6.40
318;DHT22;146;53.448;10.228;2023-01-06T08:56:22;10.10;6.30
318;DHT22;146;53.448;10.228;2023-01-06T08:58:50;10.10;6.00
318;DHT22;146;53.448;10.228;2023-01-06T09:01:20;10.20;5.60
318;DHT22;146;53.448;10.228;2023-01-06T09:03:49;10.10;5.40
318;DHT22;146;53.448;10.228;2023-01-06T09:06:17;10.20;5.30
318;DHT22;146;53.448;10.228;2023-01-06T09:08:44;10.30;5.30
318;DHT22;146;53.448;10.228;2023-01-06T09:11:26;10.20;4.90
318;DHT22;146;53.448;10.228;2023-01-06T09:13:59;10.30;5.10
318;DHT22;146;53.448;10.228;2023-01-06T09:16:28;10.20;5.00
318;DHT22;146;53.448;10.228;2023-01-06T09:19:14;10.30;5.10
318;DHT22;146;53.448;10.228;2023-01-06T09:21:42;10.30;5.00
318;DHT22;146;53.448;10.228;2023-01-06T09:24:13;10.30;4.90
318;DHT22;146;53.448;10.228;2023-01-06T09:26:43;10.30;4.70
318;DHT22;146;53.448;10.228;2023-01-06T09:29:10;10.30;4.80
318;DHT22;146;53.448;10.228;2023-01-06T09:31:39;10.30;4.60
318;DHT22;146;53.448;10.228;2023-01-06T09:34:06;10.20;4.60
318;DHT22;146;53.448;10.228;2023-01-06T09:36:35;10.30;4.80
318;DHT22;146;53.448;10.228;2023-01-06T09:39:02;10.30;4.70
318;DHT22;146;53.448;10.228;2023-01-06T09:41:47;10.30;4.60
318;DHT22;146;53.448;10.228;2023-01-06T09:44:26;10.20;4.90
318;DHT22;146;53.448;10.228;2023-01-06T09:46:55;10.20;4.80
318;DHT22;146;53.448;10.228;2023-01-06T09:49:28;10.20;5.00
318;DHT22;146;53.448;10.228;2023-01-06T09:52:00;10.20;5.00
318;DHT22;146;53.448;10.228;2023-01-06T09:54:33;10.20;4.80
318;DHT22;146;53.448;10.228;2023-01-06T09:57:13;10.20;4.60
318;DHT22;146;53.448;10.228;2023-01-06T09:59:49;10.20;4.70
318;DHT22;146;53.448;10.228;2023-01-06T10:02:28;10.20;4.90
318;DHT22;146;53.448;10.228;2023-01-06T10:04:57;10.20;4.90
318;DHT22;146;53.448;10.228;2023-01-06T10:07:32;10.20;4.90
318;DHT22;146;53.448;10.228;2023-01-06T10:10:13;10.20;5.10
318;DHT22;146;53.448;10.228;2023-01-06T10:13:02;10.10;5.20
318;DHT22;146;53.448;10.228;2023-01-06T10:15:39;10.10;5.30
318;DHT22;146;53.448;10.228;2023-01-06T10:18:24;10.10;5.60
318;DHT22;146;53.448;10.228;2023-01-06T10:21:08;10.10;5.90
318;DHT22;146;53.448;10.228;2023-01-06T10:24:07;10.10;6.00
318;DHT22;146;53.448;10.228;2023-01-06T10:26:41;10.10;6.20
318;DHT22;146;53.448;10.228;2023-01-06T10:29:14;10.10;6.50
318;DHT22;146;53.448;10.228;2023-01-06T10:31:44;10.10;6.60
318;DHT22;146;53.448;10.228;2023-01-06T10:34:18;10.10;6.90
318;DHT22;146;53.448;10.228;2023-01-06T10:36:50;10.20;6.80
318;DHT22;146;53.448;10.228;2023-01-06T10:39:24;10.20;6.30
318;DHT22;146;53.448;10.228;2023-01-06T10:42:03;10.20;6.20
318;DHT22;146;53.448;10.228;2023-01-06T10:44:49;10.20;6.10
318;DHT22;146;53.448;10.228;2023-01-06T10:47:23;10.20;6.10
318;DHT22;146;53.448;10.228;2023-01-06T10:49:51;10.30;6.40
318;DHT22;146;53.448;10.228;2023-01-06T10:52:19;10.30;6.40
318;DHT22;146;53.448;10.228;2023-01-06T10:54:50;10.30;6.40
318;DHT22;146;53.448;10.228;2023-01-06T10:57:21;10.30;6.50
318;DHT22;146;53.448;10.228;2023-01-06T11:00:09;10.40;6.30
318;DHT22;146;53.448;10.228;2023-01-06T11:02:40;10.50;6.20
318;DHT22;146;53.448;10.228;2023-01-06T11:05:12;10.50;5.90
318;DHT22;146;53.448;10.228;2023-01-06T11:07:46;10.50;5.90
318;DHT22;146;53.448;10.228;2023-01-06T11:10:26;10.50;5.40
318;DHT22;146;53.448;10.228;2023-01-06T11:12:54;10.50;5.10
318;DHT22;146;53.448;10.228;2023-01-06T11:15:27;10.50;4.90
318;DHT22;146;53.448;10.228;2023-01-06T11:17:57;10.50;5.00
318;DHT22;146;53.448;10.228;2023-01-06T11:20:29;10.60;4.60
318;DHT22;146;53.448;10.228;2023-01-06T11:23:11;10.50;3.80
318;DHT22;146;53.448;10.228;2023-01-06T11:25:40;10.50;3.60
318;DHT22;146;53.448;10.228;2023-01-06T11:28:17;10.50;3.40
318;DHT22;146;53.448;10.228;2023-01-06T11:30:49;10.60;3.00
318;DHT22;146;53.448;10.228;2023-01-06T11:33:20;10.70;3.20
318;DHT22;146;53.448;10.228;2023-01-06T11:35:48;10.80;3.30
318;DHT22;146;53.448;10.228;2023-01-06T11:38:17;10.90;2.80
318;DHT22;146;53.448;10.228;2023-01-06T11:40:47;11.00;2.20
318;DHT22;146;53.448;10.228;2023-01-06T11:43:19;11.00;1.00
318;DHT22;146;53.448;10.228;2023-01-06T11:45:51;11.00;1.00
318;DHT22;146;53.448;10.228;2023-01-06T11:48:21;11.00;1.00
318;DHT22;146;53.448;10.228;2023-01-06T11:50:52;10.90;1.00
318;DHT22;146;53.448;10.228;2023-01-06T11:53:20;10.80;1.00
318;DHT22;146;53.448;10.228;2023-01-06T11:56:00;10.70;1.00
318;DHT22;146;53.448;10.228;2023-01-06T12:01:35;10.60;1.00
318;DHT22;146;53.448;10.228;2023-01-06T12:04:14;10.50;1.00
318;DHT22;146;53.448;10.228;2023-01-06T12:06:43;10.50;1.00
318;DHT22;146;53.448;10.228;2023-01-06T12:09:15;10.50;1.00
318;DHT22;146;53.448;10.228;2023-01-06T12:11:45;10.30;1.00
318;DHT22;146;53.448;10.228;2023-01-06T12:14:15;10.30;1.00
318;DHT22;146;53.448;10.228;2023-01-06T12:16:51;10.20;1.00
318;DHT22;146;53.448;10.228;2023-01-06T12:19:25;10.20;1.00
318;DHT22;146;53.448;10.228;2023-01-06T12:21:56;10.10;1.00
318;DHT22;146;53.448;10.228;2023-01-06T12:24:25;10.10;1.00
318;DHT22;146;53.448;10.228;2023-01-06T12:26:56;10.10;1.00
318;DHT22;146;53.448;10.228;2023-01-06T12:29:24;10.00;1.00
318;DHT22;146;53.448;10.228;2023-01-06T12:31:59;10.10;1.00
318;DHT22;146;53.448;10.228;2023-01-06T12:34:30;10.20;1.00
318;DHT22;146;53.448;10.228;2023-01-06T12:37:19;10.20;1.00
318;DHT22;146;53.448;10.228;2023-01-06T12:39:52;10.40;1.00
318;DHT22;146;53.448;10.228;2023-01-06T12:42:34;10.60;1.00
318;DHT22;146;53.448;10.228;2023-01-06T12:45:07;10.80;1.00
318;DHT22;146;53.448;10.228;2023-01-06T12:47:40;10.90;1.00
318;DHT22;146;53.448;10.228;2023-01-06T12:50:19;10.90;1.00
318;DHT22;146;53.448;10.228;2023-01-06T12:52:51;10.80;1.00
318;DHT22;146;53.448;10.228;2023-01-06T12:55:25;10.60;1.00
318;DHT22;146;53.448;10.228;2023-01-06T12:58:00;10.60;1.00
318;DHT22;146;53.448;10.228;2023-01-06T13:00:43;10.50;1.00
318;DHT22;146;53.448;10.228;2023-01-06T13:03:24;10.40;1.00
318;DHT22;146;53.448;10.228;2023-01-06T13:06:04;10.30;1.00
318;DHT22;146;53.448;10.228;2023-01-06T13:08:50;10.30;1.00
318;DHT22;146;53.448;10.228;2023-01-06T13:11:27;10.20;1.00
318;DHT22;146;53.448;10.228;2023-01-06T13:14:02;10.10;1.00
318;DHT22;146;53.448;10.228;2023-01-06T13:16:37;10.10;1.00
318;DHT22;146;53.448;10.228;2023-01-06T13:19:15;10.00;1.00
318;DHT22;146;53.448;10.228;2023-01-06T13:21:46;10.00;1.00
318;DHT22;146;53.448;10.228;2023-01-06T13:24:23;9.90;1.00
318;DHT22;146;53.448;10.228;2023-01-06T13:27:27;9.80;1.00
318;DHT22;146;53.448;10.228;2023-01-06T13:30:08;9.70;1.00
318;DHT22;146;53.448;10.228;2023-01-06T13:32:50;9.70;1.00
318;DHT22;146;53.448;10.228;2023-01-06T13:35:39;9.70;1.00
318;DHT22;146;53.448;10.228;2023-01-06T13:38:20;9.60;1.00
318;DHT22;146;53.448;10.228;2023-01-06T13:40:52;9.60;1.00
318;DHT22;146;53.448;10.228;2023-01-06T13:43:26;9.60;1.00
318;DHT22;146;53.448;10.228;2023-01-06T13:45:59;9.60;1.00
318;DHT22;146;53.448;10.228;2023-01-06T13:48:28;9.70;1.00
318;DHT22;146;53.448;10.228;2023-01-06T13:50:58;9.70;1.00
318;DHT22;146;53.448;10.228;2023-01-06T13:53:25;9.80;1.00
318;DHT22;146;53.448;10.228;2023-01-06T13:56:26;9.90;1.00
318;DHT22;146;53.448;10.228;2023-01-06T13:59:21;9.80;1.00
318;DHT22;146;53.448;10.228;2023-01-06T14:01:50;9.90;1.00
318;DHT22;146;53.448;10.228;2023-01-06T14:04:46;10.00;1.00
318;DHT22;146;53.448;10.228;2023-01-06T14:07:14;9.90;1.00
318;DHT22;146;53.448;10.228;2023-01-06T14:09:55;10.00;1.00
318;DHT22;146;53.448;10.228;2023-01-06T14:12:23;10.00;1.00
318;DHT22;146;53.448;10.228;2023-01-06T14:14:59;10.00;1.00
318;DHT22;146;53.448;10.228;2023-01-06T14:17:30;10.00;1.00
318;DHT22;146;53.448;10.228;2023-01-06T14:20:03;9.90;1.00
318;DHT22;146;53.448;10.228;2023-01-06T14:22:31;9.90;1.00
318;DHT22;146;53.448;10.228;2023-01-06T14:25:00;9.90;1.00
318;DHT22;146;53.448;10.228;2023-01-06T14:28:05;9.80;1.00
318;DHT22;146;53.448;10.228;2023-01-06T14:30:34;9.70;1.00
318;DHT22;146;53.448;10.228;2023-01-06T14:33:30;9.70;1.00
318;DHT22;146;53.448;10.228;2023-01-06T14:38:30;9.60;1.00
318;DHT22;146;53.448;10.228;2023-01-06T14:40:59;9.60;1.00
318;DHT22;146;53.448;10.228;2023-01-06T14:43:35;9.60;1.00
318;DHT22;146;53.448;10.228;2023-01-06T14:46:08;9.50;1.00
318;DHT22;146;53.448;10.228;2023-01-06T14:48:44;9.50;1.00
318;DHT22;146;53.448;10.228;2023-01-06T14:51:16;9.50;1.00
318;DHT22;146;53.448;10.228;2023-01-06T14:53:48;9.50;1.00
318;DHT22;146;53.448;10.228;2023-01-06T14:56:19;9.50;1.00
318;DHT22;146;53.448;10.228;2023-01-06T14:58:47;9.60;1.00
318;DHT22;146;53.448;10.228;2023-01-06T15:01:20;9.50;1.00
318;DHT22;146;53.448;10.228;2023-01-06T15:03:57;9.50;1.00
318;DHT22;146;53.448;10.228;2023-01-06T15:06:26;9.60;1.00
318;DHT22;146;53.448;10.228;2023-01-06T15:08:54;9.60;1.00
318;DHT22;146;53.448;10.228;2023-01-06T15:11:25;9.60;1.00
318;DHT22;146;53.448;10.228;2023-01-06T15:13:52;9.60;1.00
318;DHT22;146;53.448;10.228;2023-01-06T15:16:26;9.60;1.00
318;DHT22;146;53.448;10.228;2023-01-06T15:18:56;9.60;1.00
318;DHT22;146;53.448;10.228;2023-01-06T15:21:27;9.60;1.00
318;DHT22;146;53.448;10.228;2023-01-06T15:23:54;9.70;1.00
318;DHT22;146;53.448;10.228;2023-01-06T15:26:23;9.70;1.00
318;DHT22;146;53.448;10.228;2023-01-06T15:28:56;9.80;1.00
318;DHT22;146;53.448;10.228;2023-01-06T15:31:26;9.80;1.00
318;DHT22;146;53.448;10.228;2023-01-06T15:33:55;9.90;1.00
318;DHT22;146;53.448;10.228;2023-01-06T15:36:23;9.90;1.00
318;DHT22;146;53.448;10.228;2023-01-06T15:38:59;9.90;1.00
318;DHT22;146;53.448;10.228;2023-01-06T15:41:27;9.90;1.00
318;DHT22;146;53.448;10.228;2023-01-06T15:44:15;9.90;1.00
318;DHT22;146;53.448;10.228;2023-01-06T15:46:45;9.90;1.00
318;DHT22;146;53.448;10.228;2023-01-06T15:49:22;10.00;1.00
318;DHT22;146;53.448;10.228;2023-01-06T15:52:04;10.00;1.00
318;DHT22;146;53.448;10.228;2023-01-06T15:54:32;9.90;1.00
318;DHT22;146;53.448;10.228;2023-01-06T15:57:01;9.90;1.00
318;DHT22;146;53.448;10.228;2023-01-06T15:59:29;9.80;1.00
318;DHT22;146;53.448;10.228;2023-01-06T16:10:44;9.50;1.00
318;DHT22;146;53.448;10.228;2023-01-06T16:17:11;9.60;1.00
318;DHT22;146;53.448;10.228;2023-01-06T16:19:48;9.50;1.00
318;DHT22;146;53.448;10.228;2023-01-06T16:22:34;9.50;1.00
318;DHT22;146;53.448;10.228;2023-01-06T16:29:23;9.40;1.00
318;DHT22;146;53.448;10.228;2023-01-06T16:31:50;9.40;1.00
318;DHT22;146;53.448;10.228;2023-01-06T16:34:24;9.30;1.00
318;DHT22;146;53.448;10.228;2023-01-06T16:36:54;9.20;1.00
318;DHT22;146;53.448;10.228;2023-01-06T16:39:21;9.10;1.00
318;DHT22;146;53.448;10.228;2023-01-06T16:42:17;9.10;1.00
318;DHT22;146;53.448;10.228;2023-01-06T16:45:20;9.00;1.00
318;DHT22;146;53.448;10.228;2023-01-06T16:47:48;8.90;1.00
318;DHT22;146;53.448;10.228;2023-01-06T16:50:21;8.80;1.00
318;DHT22;146;53.448;10.228;2023-01-06T16:52:53;8.70;1.00
318;DHT22;146;53.448;10.228;2023-01-06T16:55:21;8.70;1.00
318;DHT22;146;53.448;10.228;2023-01-06T16:57:49;8.70;1.00
318;DHT22;146;53.448;10.228;2023-01-06T17:00:21;8.70;1.00
318;DHT22;146;53.448;10.228;2023-01-06T17:02:55;8.70;1.00
318;DHT22;146;53.448;10.228;2023-01-06T17:05:25;8.60;1.00
318;DHT22;146;53.448;10.228;2023-01-06T17:07:56;8.60;1.00
318;DHT22;146;53.448;10.228;2023-01-06T17:10:24;8.60;1.00
318;DHT22;146;53.448;10.228;2023-01-06T17:12:54;8.70;1.00
318;DHT22;146;53.448;10.228;2023-01-06T17:15:43;8.60;1.00
318;DHT22;146;53.448;10.228;2023-01-06T17:18:24;8.60;1.00
318;DHT22;146;53.448;10.228;2023-01-06T17:21:46;8.60;1.00
318;DHT22;146;53.448;10.228;2023-01-06T17:24:37;8.50;1.00
318;DHT22;146;53.448;10.228;2023-01-06T17:27:22;8.40;1.00
318;DHT22;146;53.448;10.228;2023-01-06T17:30:05;8.40;1.00
318;DHT22;146;53.448;10.228;2023-01-06T17:33:36;8.30;1.00
318;DHT22;146;53.448;10.228;2023-01-06T17:36:20;8.20;1.00
318;DHT22;146;53.448;10.228;2023-01-06T17:39:01;8.10;1.00
318;DHT22;146;53.448;10.228;2023-01-06T17:42:01;8.10;1.00
318;DHT22;146;53.448;10.228;2023-01-06T17:44:41;8.10;1.00
318;DHT22;146;53.448;10.228;2023-01-06T17:47:54;8.00;1.00
318;DHT22;146;53.448;10.228;2023-01-06T18:07:09;7.80;1.00
318;DHT22;146;53.448;10.228;2023-01-06T18:10:26;7.80;1.00
318;DHT22;146;53.448;10.228;2023-01-06T18:13:12;7.70;1.00
318;DHT22;146;53.448;10.228;2023-01-06T18:15:41;7.70;1.00
